createdAt,value
2023-05-05T00:00:39.038Z,3.00
2023-05-05T00:05:42.255Z,3.13
2023-05-05T00:10:48.478Z,3.10
2023-05-05T00:15:52.546Z,2.92
2023-05-05T00:20:54.706Z,3.20
2023-05-05T00:25:56.983Z,3.20
2023-05-05T00:30:59.610Z,3.17
2023-05-05T00:36:01.840Z,3.00
2023-05-05T00:41:04.119Z,3.62
2023-05-05T00:46:24.721Z,3.30
2023-05-05T00:51:28.352Z,3.30
2023-05-05T00:56:31.223Z,3.57
2023-05-05T01:01:33.818Z,3.65
2023-05-05T01:07:18.882Z,3.33
2023-05-05T01:12:51.566Z,3.50
2023-05-05T01:18:44.620Z,3.60
2023-05-05T01:24:05.323Z,4.10
2023-05-05T01:29:23.225Z,4.22
2023-05-05T01:34:34.435Z,3.80
2023-05-05T01:39:38.794Z,3.72
2023-05-05T01:44:44.888Z,3.85
2023-05-05T01:49:48.772Z,4.00
2023-05-05T01:54:52.898Z,4.20
2023-05-05T01:59:56.871Z,4.00
2023-05-05T02:05:00.183Z,4.60
2023-05-05T02:10:03.238Z,4.07
2023-05-05T02:15:06.252Z,4.37
2023-05-05T02:20:11.929Z,4.15
2023-05-05T02:25:14.299Z,4.30
2023-05-05T02:30:19.880Z,4.47
2023-05-05T02:35:27.273Z,4.30
2023-05-05T02:40:33.052Z,4.20
2023-05-05T02:45:35.257Z,4.55
2023-05-05T02:50:37.415Z,4.50
2023-05-05T02:55:45.357Z,4.53
2023-05-05T03:01:07.365Z,4.30
2023-05-05T03:06:20.817Z,4.80
2023-05-05T03:11:29.176Z,4.50
2023-05-05T03:16:34.637Z,4.53
2023-05-05T03:21:37.332Z,4.95
2023-05-05T03:26:39.495Z,4.43
2023-05-05T03:31:42.284Z,5.20
2023-05-05T03:36:44.509Z,5.25
2023-05-05T03:41:46.662Z,4.95
2023-05-05T03:46:48.875Z,5.30
2023-05-05T03:51:51.211Z,5.28
2023-05-05T03:56:53.375Z,4.90
2023-05-05T04:01:55.520Z,4.78
2023-05-05T04:06:57.718Z,4.75
2023-05-05T04:11:59.868Z,5.25
2023-05-05T04:17:02.149Z,5.03
2023-05-05T04:22:04.307Z,5.43
2023-05-05T04:27:06.523Z,5.37
2023-05-05T04:32:08.699Z,5.53
2023-05-05T04:37:10.848Z,5.30
2023-05-05T04:42:12.971Z,5.55
2023-05-05T04:47:15.060Z,5.93
2023-05-05T04:52:17.205Z,5.43
2023-05-05T04:57:19.343Z,5.72
2023-05-05T05:02:21.661Z,6.00
2023-05-05T05:07:24.129Z,5.97
2023-05-05T05:12:26.248Z,6.37
2023-05-05T05:17:30.135Z,6.12
2023-05-05T05:22:32.377Z,6.35
2023-05-05T05:27:34.579Z,5.90
2023-05-05T05:32:36.822Z,6.37
2023-05-05T05:37:39.048Z,6.07
2023-05-05T05:42:41.983Z,5.05
2023-05-05T05:47:44.156Z,5.50
2023-05-05T05:52:46.482Z,5.60
2023-05-05T05:57:48.685Z,5.65
2023-05-05T06:02:51.664Z,5.57
2023-05-05T06:07:53.892Z,5.93
2023-05-05T06:12:56.486Z,5.45
2023-05-05T06:17:58.846Z,5.03
2023-05-05T06:23:01.183Z,4.87
2023-05-05T06:28:04.439Z,4.30
2023-05-05T06:33:06.581Z,4.75
2023-05-05T06:38:09.794Z,4.30
2023-05-05T06:43:11.992Z,3.90
2023-05-05T06:48:14.151Z,4.68
2023-05-05T06:53:16.337Z,4.10
2023-05-05T06:58:18.471Z,4.30
2023-05-05T07:03:20.712Z,4.30
2023-05-05T07:08:22.925Z,4.87
2023-05-05T07:13:25.113Z,4.65
2023-05-05T07:18:27.418Z,4.90
2023-05-05T07:23:29.637Z,4.60
2023-05-05T07:28:31.774Z,4.20
2023-05-05T07:33:33.912Z,4.10
2023-05-05T07:38:36.212Z,4.30
2023-05-05T07:43:42.290Z,4.43
2023-05-05T07:48:45.820Z,5.15
2023-05-05T07:53:47.935Z,5.00
2023-05-05T07:58:50.102Z,5.87
2023-05-05T08:03:52.322Z,6.65
2023-05-05T08:08:55.845Z,6.13
2023-05-05T08:13:58.568Z,6.93
2023-05-05T08:19:00.818Z,6.90
2023-05-05T08:24:02.977Z,8.33
2023-05-05T08:29:05.240Z,8.23
2023-05-05T08:34:07.598Z,9.00
2023-05-05T08:39:09.923Z,10.13
2023-05-05T08:44:12.180Z,10.07
2023-05-05T08:49:17.813Z,10.37
2023-05-05T08:54:22.910Z,9.88
2023-05-05T08:59:26.020Z,10.23
2023-05-05T09:04:28.687Z,10.48
2023-05-05T09:09:31.077Z,9.85
2023-05-05T09:14:33.279Z,9.83
2023-05-05T09:20:00.757Z,10.80
2023-05-05T09:25:04.054Z,11.13
2023-05-05T09:30:07.067Z,10.88
2023-05-05T09:35:09.664Z,9.73
2023-05-05T09:40:14.576Z,9.37
2023-05-05T09:45:19.920Z,9.93
2023-05-05T09:50:22.428Z,8.90
2023-05-05T09:55:25.646Z,10.73
2023-05-05T10:00:39.670Z,10.77
2023-05-05T10:05:51.939Z,11.00
2023-05-05T10:10:56.815Z,10.80
2023-05-05T10:16:01.112Z,11.63
2023-05-05T10:21:04.393Z,11.45
2023-05-05T10:26:07.738Z,12.00
2023-05-05T10:31:25.777Z,12.70
2023-05-05T10:36:29.865Z,12.63
2023-05-05T10:41:33.402Z,11.90
2023-05-05T10:46:35.697Z,10.90
2023-05-05T10:51:49.810Z,12.30
2023-05-05T10:56:52.531Z,11.70
2023-05-05T11:01:54.767Z,12.23
2023-05-05T11:07:11.848Z,9.07
2023-05-05T11:12:16.700Z,9.68
2023-05-05T11:17:44.384Z,10.85
2023-05-05T11:23:05.368Z,11.07
2023-05-05T11:28:13.359Z,10.23
2023-05-05T11:33:36.054Z,10.93
2023-05-05T11:38:56.745Z,10.95
2023-05-05T11:44:17.177Z,10.43
2023-05-05T11:49:39.245Z,10.77
2023-05-05T11:54:48.129Z,10.68
2023-05-05T11:59:54.765Z,12.23
2023-05-05T12:04:58.199Z,11.57
2023-05-05T12:10:01.260Z,12.37
2023-05-05T12:15:04.327Z,12.10
2023-05-05T12:20:07.671Z,12.93
2023-05-05T12:25:10.626Z,12.00
2023-05-05T12:30:15.664Z,12.20
2023-05-05T12:35:19.881Z,11.77
2023-05-05T12:40:45.068Z,12.43
2023-05-05T12:45:47.308Z,10.48
2023-05-05T12:50:49.651Z,11.63
2023-05-05T12:55:52.083Z,10.90
2023-05-05T13:01:10.801Z,11.00
2023-05-05T13:06:27.112Z,11.80
2023-05-05T13:11:29.457Z,9.63
2023-05-05T13:16:32.347Z,10.20
2023-05-05T13:21:34.541Z,10.30
2023-05-05T13:26:36.776Z,9.30
2023-05-05T13:31:38.907Z,11.00
2023-05-05T13:36:41.104Z,9.50
2023-05-05T13:41:44.837Z,11.07
2023-05-05T13:46:47.247Z,10.07
2023-05-05T13:51:49.509Z,10.02
2023-05-05T13:56:51.633Z,11.57
2023-05-05T14:01:54.050Z,11.63
2023-05-05T14:06:58.243Z,11.23
2023-05-05T14:12:00.366Z,10.77
2023-05-05T14:17:02.682Z,9.05
2023-05-05T14:22:04.914Z,11.47
2023-05-05T14:27:07.197Z,10.15
2023-05-05T14:32:09.452Z,9.73
2023-05-05T14:37:11.673Z,10.23
2023-05-05T14:42:13.837Z,11.48
2023-05-05T14:47:16.002Z,9.17
2023-05-05T14:52:18.128Z,9.45
2023-05-05T14:57:26.329Z,9.40
2023-05-05T15:02:28.518Z,9.60
2023-05-05T15:07:30.675Z,9.98
2023-05-05T15:12:33.079Z,10.13
2023-05-05T15:17:37.432Z,8.68
2023-05-05T15:22:39.772Z,8.93
2023-05-05T15:27:42.153Z,8.15
2023-05-05T15:32:44.334Z,8.63
2023-05-05T15:37:46.505Z,8.00
2023-05-05T15:42:49.924Z,7.53
2023-05-05T15:47:52.941Z,7.97
2023-05-05T15:52:56.950Z,8.40
2023-05-05T15:57:59.237Z,7.68
2023-05-05T16:03:01.416Z,7.23
2023-05-05T16:08:09.653Z,7.40
2023-05-05T16:13:12.011Z,7.53
2023-05-05T16:18:14.246Z,7.43
2023-05-05T16:23:16.524Z,7.03
2023-05-05T16:28:18.723Z,7.33
2023-05-05T16:33:20.884Z,6.93
2023-05-05T16:38:23.111Z,7.63
2023-05-05T16:43:25.281Z,7.20
2023-05-05T16:48:27.457Z,6.80
2023-05-05T16:53:29.671Z,7.20
2023-05-05T16:58:32.004Z,5.82
2023-05-05T17:03:34.143Z,5.77
2023-05-05T17:08:36.310Z,5.70
2023-05-05T17:13:38.581Z,6.65
2023-05-05T17:18:41.157Z,6.43
2023-05-05T17:23:43.332Z,5.93
2023-05-05T17:28:45.518Z,5.77
2023-05-05T17:33:47.751Z,5.72
2023-05-05T17:38:49.936Z,5.62
2023-05-05T17:43:52.148Z,5.30
2023-05-05T17:48:54.787Z,5.15
2023-05-05T17:53:57.089Z,4.77
2023-05-05T17:59:00.570Z,5.75
2023-05-05T18:04:02.995Z,5.32
2023-05-05T18:09:05.168Z,5.00
2023-05-05T18:14:07.304Z,4.72
2023-05-05T18:19:09.491Z,4.90
2023-05-05T18:24:20.126Z,4.78
2023-05-05T18:29:22.985Z,5.00
2023-05-05T18:34:25.170Z,4.67
2023-05-05T18:39:27.369Z,5.10
2023-05-05T18:44:29.637Z,5.47
2023-05-05T18:49:31.843Z,5.62
2023-05-05T18:54:36.248Z,5.35
2023-05-05T18:59:39.880Z,5.93
2023-05-05T19:04:42.507Z,5.65
2023-05-05T19:15:01.585Z,6.68
2023-05-05T19:20:04.242Z,6.10
2023-05-05T19:25:22.816Z,5.97
2023-05-05T19:30:25.153Z,6.32
2023-05-05T19:35:27.964Z,5.63
2023-05-05T19:40:30.689Z,6.62
2023-05-05T19:45:36.594Z,6.80
2023-05-05T19:50:38.879Z,7.00
2023-05-05T19:55:41.152Z,6.65
2023-05-05T20:00:43.358Z,7.47
2023-05-05T20:05:45.617Z,6.75
2023-05-05T20:10:49.187Z,6.95
2023-05-05T20:15:51.674Z,6.55
2023-05-05T20:20:53.965Z,7.78
2023-05-05T20:25:56.799Z,7.33
2023-05-05T20:31:00.718Z,7.60
2023-05-05T20:36:03.174Z,7.62
2023-05-05T20:41:05.907Z,7.95
2023-05-05T20:46:13.357Z,7.45
2023-05-05T20:51:15.835Z,7.50
2023-05-05T20:56:18.041Z,8.05
2023-05-05T21:01:20.266Z,8.07
2023-05-05T21:06:22.494Z,8.23
2023-05-05T21:11:24.662Z,8.20
2023-05-05T21:16:26.873Z,8.13
2023-05-05T21:21:29.078Z,8.75
2023-05-05T21:26:31.267Z,8.45
2023-05-05T21:31:33.536Z,8.43
2023-05-05T21:36:36.815Z,8.23
2023-05-05T21:41:39.049Z,8.67
2023-05-05T21:46:41.437Z,8.80
2023-05-05T21:51:44.961Z,8.00
2023-05-05T21:56:47.196Z,8.38
2023-05-05T22:01:49.812Z,8.75
2023-05-05T22:06:52.276Z,8.53
2023-05-05T22:11:54.450Z,8.43
2023-05-05T22:16:57.241Z,8.60
2023-05-05T22:21:59.430Z,8.80
2023-05-05T22:27:01.921Z,9.07
2023-05-05T22:32:04.078Z,8.93
2023-05-05T22:37:06.223Z,8.68
2023-05-05T22:42:08.540Z,9.00
2023-05-05T22:47:10.805Z,8.35
2023-05-05T22:52:13.723Z,8.60
2023-05-05T22:57:15.927Z,9.30
2023-05-05T23:02:18.145Z,8.98
2023-05-05T23:07:20.466Z,8.82
2023-05-05T23:12:22.723Z,9.00
2023-05-05T23:17:25.391Z,9.05
2023-05-05T23:22:27.547Z,9.03
2023-05-05T23:27:29.898Z,9.80
2023-05-05T23:32:32.108Z,9.68
2023-05-05T23:37:34.285Z,9.38
2023-05-05T23:42:36.468Z,9.38
2023-05-05T23:47:38.688Z,8.77
2023-05-05T23:52:41.854Z,9.48
2023-05-05T23:57:44.053Z,9.68
